Time;durP1;ratioP1;P1;durP2;ratioP2;P2;SDS_P1;SDS_P2;PMS_P1;PMS_P2;Temp;Humidity;BMP_temperature;BMP_pressure;BME280_temperature;BME280_humidity;BME280_pressure;Samples;Min_cycle;Max_cycle;Signal;HPM_P1;HPM_P2
2023/04/07 00:02:06;;;;;;;30.90;18.60;;;;;;;3.41;100.00;100642.33;105603;1261;98689;-77
2023/04/07 00:04:51;;;;;;;31.10;18.70;;;;;;;3.42;100.00;100639.89;105496;1257;97989;-77
2023/04/07 00:07:37;;;;;;;31.60;19.20;;;;;;;3.42;100.00;100634.95;105654;1260;97994;-78
2023/04/07 00:10:24;;;;;;;28.40;18.80;;;;;;;3.44;100.00;100634.50;105560;1257;102224;-77
2023/04/07 00:13:10;;;;;;;33.80;19.60;;;;;;;3.46;100.00;100632.16;105507;1256;99250;-78
2023/04/07 00:15:55;;;;;;;33.10;19.30;;;;;;;3.49;100.00;100629.27;105623;1260;98283;-77
2023/04/07 00:18:41;;;;;;;31.60;18.50;;;;;;;3.49;100.00;100619.30;105576;1256;97965;-78
2023/04/07 00:21:26;;;;;;;32.50;18.50;;;;;;;3.52;100.00;100616.09;105698;1259;98045;-78
2023/04/07 00:24:12;;;;;;;31.10;18.40;;;;;;;3.53;100.00;100612.40;105570;1260;101437;-77
2023/04/07 00:26:57;;;;;;;28.70;18.40;;;;;;;3.54;100.00;100608.81;105655;1260;99207;-78
2023/04/07 00:29:45;;;;;;;26.20;14.80;;;;;;;3.54;100.00;100609.15;105703;1261;99330;-78
2023/04/07 00:32:31;;;;;;;27.70;17.10;;;;;;;3.53;100.00;100605.67;105606;1256;97952;-77
2023/04/07 00:35:18;;;;;;;30.20;18.70;;;;;;;3.53;100.00;100604.27;105564;1269;99187;-78
2023/04/07 00:38:04;;;;;;;29.20;17.70;;;;;;;3.55;100.00;100605.68;105540;1261;102073;-76
2023/04/07 00:40:49;;;;;;;29.40;17.90;;;;;;;3.56;100.00;100607.20;105658;1258;99066;-77
2023/04/07 00:43:35;;;;;;;30.80;17.90;;;;;;;3.57;100.00;100608.20;105671;1255;98918;-79
2023/04/07 00:46:22;;;;;;;29.10;17.00;;;;;;;3.57;100.00;100601.61;105648;1258;97972;-78
2023/04/07 00:49:08;;;;;;;30.80;18.50;;;;;;;3.59;100.00;100597.53;105561;1261;98381;-77
2023/04/07 00:51:57;;;;;;;30.50;18.70;;;;;;;3.61;100.00;100593.34;105580;1261;101350;-77
2023/04/07 00:54:45;;;;;;;31.30;19.10;;;;;;;3.62;100.00;100590.34;105649;1258;100325;-78
2023/04/07 00:57:30;;;;;;;32.60;18.70;;;;;;;3.64;100.00;100590.36;105590;1256;99249;-78
2023/04/07 01:00:16;;;;;;;29.60;18.20;;;;;;;3.66;100.00;100587.56;105590;1259;98454;-78
2023/04/07 01:03:17;;;;;;;30.80;18.40;;;;;;;3.66;100.00;100586.77;105546;1254;98422;-77
2023/04/07 01:06:07;;;;;;;28.90;17.50;;;;;;;3.68;100.00;100579.25;105632;1256;102125;-77
2023/04/07 01:09:06;;;;;;;29.50;17.50;;;;;;;3.69;100.00;100581.44;107347;1260;99815;-78
2023/04/07 01:12:06;;;;;;;31.50;17.90;;;;;;;3.70;100.00;100584.64;105554;1258;97932;-77
2023/04/07 01:14:59;;;;;;;29.30;17.90;;;;;;;3.72;100.00;100576.13;105722;1260;97891;-77
2023/04/07 01:18:06;;;;;;;27.40;16.40;;;;;;;3.75;100.00;100579.08;105499;1260;98502;-77
2023/04/07 01:20:59;;;;;;;27.70;17.80;;;;;;;3.77;100.00;100575.35;105647;1257;101426;-77
2023/04/07 01:24:17;;;;;;;30.30;19.10;;;;;;;3.79;100.00;100571.61;105466;1270;99095;-78
2023/04/07 01:27:26;;;;;;;27.90;16.80;;;;;;;3.81;100.00;100574.59;105513;1258;99011;-77
2023/04/07 01:30:14;;;;;;;30.40;18.00;;;;;;;3.83;100.00;100572.33;105673;1258;97955;-77
2023/04/07 01:33:03;;;;;;;28.70;18.60;;;;;;;3.85;100.00;100567.88;105526;1262;99038;-77
2023/04/07 01:35:49;;;;;;;29.50;18.10;;;;;;;3.87;100.00;100564.87;105661;1260;101403;-77
2023/04/07 01:38:37;;;;;;;28.60;17.70;;;;;;;3.88;100.00;100562.28;105529;1260;100307;-77
2023/04/07 01:41:24;;;;;;;30.90;18.10;;;;;;;3.89;100.00;100559.73;105632;1257;97939;-77
2023/04/07 01:44:10;;;;;;;31.30;18.50;;;;;;;3.90;100.00;100558.55;105579;1257;99272;-76
2023/04/07 01:46:57;;;;;;;25.70;17.50;;;;;;;3.93;100.00;100556.90;105643;1264;98455;-77
2023/04/07 01:49:44;;;;;;;28.90;19.10;;;;;;;3.95;100.00;100559.69;105663;1260;101320;-80
2023/04/07 01:52:31;;;;;;;25.80;17.30;;;;;;;3.97;100.00;100555.48;105764;1268;99212;-77
2023/04/07 01:55:16;;;;;;;25.20;17.50;;;;;;;3.99;100.00;100555.48;105537;1259;98762;-78
2023/04/07 01:58:11;;;;;;;31.50;19.10;;;;;;;4.00;100.00;100558.29;105597;1260;99132;-78
2023/04/07 02:01:00;;;;;;;29.50;17.70;;;;;;;4.03;100.00;100557.19;105613;1259;98054;-77
2023/04/07 02:03:53;;;;;;;26.60;17.40;;;;;;;4.06;100.00;100560.26;105601;1257;101428;-77
2023/04/07 02:06:47;;;;;;;27.50;18.10;;;;;;;4.08;100.00;100557.56;105640;1259;100387;-77
2023/04/07 02:09:38;;;;;;;28.00;18.00;;;;;;;4.10;100.00;100555.77;105598;1269;98232;-77
2023/04/07 02:12:27;;;;;;;28.70;17.10;;;;;;;4.12;100.00;100556.79;105540;1260;99337;-77
2023/04/07 02:15:22;;;;;;;27.70;17.70;;;;;;;4.14;100.00;100555.95;105846;1260;97949;-77
2023/04/07 02:18:09;;;;;;;25.10;15.10;;;;;;;4.16;100.00;100559.26;105546;1258;102044;-77
2023/04/07 02:20:57;;;;;;;31.80;18.10;;;;;;;4.18;100.00;100558.70;105607;1255;99250;-76
2023/04/07 02:23:42;;;;;;;25.60;17.00;;;;;;;4.20;100.00;100557.48;105471;1261;98971;-78
2023/04/07 02:26:33;;;;;;;25.80;17.40;;;;;;;4.21;100.00;100557.86;105546;1261;98049;-77
2023/04/07 02:29:18;;;;;;;26.50;16.40;;;;;;;4.23;100.00;100559.80;106119;1254;97965;-77
2023/04/07 02:32:05;;;;;;;26.80;17.30;;;;;;;4.25;100.00;100561.16;105672;1254;102662;-78
2023/04/07 02:34:50;;;;;;;25.50;16.80;;;;;;;4.27;100.00;100557.86;105611;1259;99088;-77
2023/04/07 02:37:36;;;;;;;26.80;17.70;;;;;;;4.29;100.00;100556.38;105504;1255;98034;-78
2023/04/07 02:40:22;;;;;;;29.40;19.10;;;;;;;4.31;100.00;100552.25;105593;1259;97867;-78
2023/04/07 02:43:13;;;;;;;26.50;17.40;;;;;;;4.32;100.00;100552.16;105591;1259;97959;-77
2023/04/07 02:45:59;;;;;;;25.70;15.60;;;;;;;4.34;100.00;100554.70;105583;1260;102573;-77
2023/04/07 02:48:44;;;;;;;27.10;17.90;;;;;;;4.35;100.00;100555.09;105612;1256;100026;-78
2023/04/07 02:51:30;;;;;;;30.40;17.00;;;;;;;4.37;100.00;100556.69;105680;1260;97935;-79
2023/04/07 02:54:15;;;;;;;29.70;17.80;;;;;;;4.38;100.00;100552.10;105699;1261;99249;-80
2023/04/07 02:57:01;;;;;;;29.00;18.00;;;;;;;4.40;100.00;100547.48;105673;1260;98517;-79
2023/04/07 02:59:48;;;;;;;29.30;17.90;;;;;;;4.42;100.00;100554.04;105724;1258;102558;-76
2023/04/07 03:02:34;;;;;;;29.60;17.80;;;;;;;4.44;100.00;100555.13;105680;1259;100328;-79
2023/04/07 03:05:19;;;;;;;33.40;18.70;;;;;;;4.46;100.00;100552.98;105767;1259;98971;-78
2023/04/07 03:08:05;;;;;;;33.40;20.40;;;;;;;4.47;100.00;100552.64;105679;1260;99529;-78
2023/04/07 03:10:50;;;;;;;29.80;18.70;;;;;;;4.49;100.00;100550.00;105717;1260;97974;-78
2023/04/07 03:13:39;;;;;;;32.70;19.60;;;;;;;4.51;100.00;100549.42;105615;1255;101353;-79
2023/04/07 03:16:25;;;;;;;29.50;18.10;;;;;;;4.54;100.00;100551.14;105750;1259;99101;-78
2023/04/07 03:19:24;;;;;;;33.50;20.60;;;;;;;4.54;100.00;100552.71;105693;1260;99537;-78
2023/04/07 03:22:11;;;;;;;28.10;16.90;;;;;;;4.55;100.00;100552.30;105749;1260;97897;-78
2023/04/07 03:25:00;;;;;;;31.50;19.10;;;;;;;4.56;100.00;100550.56;105708;1256;98556;-78
2023/04/07 03:27:45;;;;;;;32.20;19.80;;;;;;;4.57;100.00;100549.53;105769;1259;101446;-77
2023/04/07 03:30:32;;;;;;;33.80;20.00;;;;;;;4.59;100.00;100549.55;105659;1254;99059;-76
2023/04/07 03:33:17;;;;;;;31.40;20.20;;;;;;;4.60;100.00;100546.80;105522;1261;98499;-76
2023/04/07 03:36:03;;;;;;;30.40;20.10;;;;;;;4.61;100.00;100550.36;105402;1261;98036;-76
2023/04/07 03:38:49;;;;;;;38.70;21.30;;;;;;;4.64;100.00;100551.89;105601;1254;98459;-77
2023/04/07 03:41:36;;;;;;;33.70;20.90;;;;;;;4.65;100.00;100549.13;105646;1269;101358;-77
2023/04/07 03:44:23;;;;;;;34.20;19.80;;;;;;;4.67;100.00;100546.27;105547;1254;100248;-77
2023/04/07 03:47:09;;;;;;;36.80;21.90;;;;;;;4.69;100.00;100546.46;105571;1257;97966;-76
2023/04/07 03:49:55;;;;;;;35.50;21.90;;;;;;;4.69;100.00;100546.54;105599;1257;97934;-76
2023/04/07 03:52:41;;;;;;;35.10;22.10;;;;;;;4.71;100.00;100546.39;105567;1255;97963;-76
2023/04/07 03:55:36;;;;;;;40.30;21.60;;;;;;;4.73;100.00;100548.92;105649;1254;102437;-77
2023/04/07 03:58:28;;;;;;;36.20;22.50;;;;;;;4.73;100.00;100547.64;105413;1257;99171;-77
2023/04/07 04:01:15;;;;;;;39.70;24.40;;;;;;;4.75;100.00;100547.49;105400;1260;98279;-77
2023/04/07 04:04:03;;;;;;;40.00;24.00;;;;;;;4.76;100.00;100546.67;105512;1257;98078;-79
2023/04/07 04:06:50;;;;;;;44.60;23.30;;;;;;;4.77;100.00;100543.33;105609;1260;97966;-76
2023/04/07 04:09:40;;;;;;;39.10;24.50;;;;;;;4.78;100.00;100545.54;105514;1265;102302;-78
2023/04/07 04:12:26;;;;;;;38.60;24.20;;;;;;;4.79;100.00;100543.81;105464;1255;99085;-76
2023/04/07 04:15:22;;;;;;;41.70;23.60;;;;;;;4.82;100.00;100546.43;105249;1260;98992;-77
2023/04/07 04:18:08;;;;;;;42.30;24.50;;;;;;;4.84;100.00;100548.86;105135;1261;97961;-78
2023/04/07 04:20:54;;;;;;;39.10;22.90;;;;;;;4.85;100.00;100546.77;105241;1260;98019;-78
2023/04/07 04:23:40;;;;;;;36.00;23.00;;;;;;;4.87;100.00;100549.07;105236;1257;101333;-77
2023/04/07 04:26:26;;;;;;;39.10;23.20;;;;;;;4.89;100.00;100554.17;105254;1260;100338;-78
2023/04/07 04:29:14;;;;;;;42.00;23.10;;;;;;;4.91;100.00;100551.73;105576;1260;97977;-78
2023/04/07 04:32:00;;;;;;;41.60;23.10;;;;;;;4.92;100.00;100554.02;105492;1260;98839;-78
2023/04/07 04:34:48;;;;;;;42.90;24.70;;;;;;;4.94;100.00;100557.40;105241;1258;98628;-76
2023/04/07 04:37:33;;;;;;;43.00;24.20;;;;;;;4.96;100.00;100560.40;105482;1259;101336;-77
2023/04/07 04:40:20;;;;;;;45.00;24.40;;;;;;;4.98;100.00;100559.06;105342;1261;100358;-78
2023/04/07 04:43:08;;;;;;;45.20;24.50;;;;;;;5.01;100.00;100559.36;105492;1257;98590;-77
2023/04/07 04:45:55;;;;;;;44.30;25.00;;;;;;;5.02;100.00;100558.83;105534;1257;97961;-76
2023/04/07 04:48:43;;;;;;;42.60;24.50;;;;;;;5.04;100.00;100561.80;105471;1260;98493;-76
2023/04/07 04:51:28;;;;;;;46.30;25.20;;;;;;;5.07;100.00;100565.65;105588;1254;101896;-77
2023/04/07 04:54:19;;;;;;;46.60;25.00;;;;;;;5.10;100.00;100568.52;105549;1258;99083;-78
2023/04/07 04:57:04;;;;;;;40.40;25.10;;;;;;;5.12;100.00;100565.13;105409;1260;99308;-77
2023/04/07 04:59:50;;;;;;;46.40;27.40;;;;;;;5.14;100.00;100566.31;105452;1261;98045;-77
2023/04/07 05:02:36;;;;;;;47.60;27.80;;;;;;;5.16;100.00;100564.91;105597;1257;98507;-76
2023/04/07 05:05:24;;;;;;;49.40;28.10;;;;;;;5.18;100.00;100564.38;105482;1261;102634;-77
2023/04/07 05:08:11;;;;;;;46.80;28.00;;;;;;;5.20;100.00;100567.88;105482;1260;100363;-77
2023/04/07 05:10:57;;;;;;;46.60;27.20;;;;;;;5.22;100.00;100565.68;105461;1257;101462;-77
2023/04/07 05:13:44;;;;;;;45.90;27.40;;;;;;;5.25;100.00;100565.25;105427;1256;98403;-78
2023/04/07 05:16:30;;;;;;;46.20;27.10;;;;;;;5.27;100.00;100563.04;105554;1260;98455;-77
2023/04/07 05:19:16;;;;;;;39.70;24.60;;;;;;;5.30;100.00;100561.89;105518;1257;102429;-77
2023/04/07 05:22:02;;;;;;;41.70;25.90;;;;;;;5.32;100.00;100567.15;105514;1257;99171;-79
2023/04/07 05:24:51;;;;;;;46.30;28.50;;;;;;;5.34;100.00;100567.09;105528;1257;99022;-78
2023/04/07 05:27:37;;;;;;;46.70;27.60;;;;;;;5.36;100.00;100565.47;105697;1260;97918;-79
2023/04/07 05:30:27;;;;;;;45.70;28.80;;;;;;;5.39;100.00;100565.36;105611;1258;97965;-78
2023/04/07 05:33:13;;;;;;;52.40;29.50;;;;;;;5.41;100.00;100569.79;105537;1258;102618;-79
2023/04/07 05:36:06;;;;;;;49.30;29.70;;;;;;;5.42;100.00;100570.87;105543;1259;99758;-77
2023/04/07 05:38:51;;;;;;;47.40;28.90;;;;;;;5.45;100.00;100566.69;105459;1260;97787;-78
2023/04/07 05:41:37;;;;;;;47.00;28.10;;;;;;;5.48;100.00;100570.30;105301;1261;98462;-78
2023/04/07 05:44:23;;;;;;;45.80;28.80;;;;;;;5.50;100.00;100571.55;105462;1260;98075;-78
2023/04/07 05:47:10;;;;;;;48.60;27.90;;;;;;;5.52;100.00;100572.05;105491;1260;102696;-77
2023/04/07 05:49:55;;;;;;;41.30;26.80;;;;;;;5.54;100.00;100573.11;105604;1257;99136;-77
2023/04/07 05:52:41;;;;;;;46.20;28.50;;;;;;;5.56;100.00;100573.81;105519;1261;99032;-78
2023/04/07 05:55:36;;;;;;;42.80;28.30;;;;;;;5.58;100.00;100570.77;105575;1256;98113;-76
2023/04/07 05:58:23;;;;;;;44.20;27.90;;;;;;;5.60;100.00;100572.16;105317;1254;98479;-76
2023/04/07 06:01:10;;;;;;;44.60;29.60;;;;;;;5.62;100.00;100566.79;105353;1256;102613;-77
2023/04/07 06:03:57;;;;;;;47.60;29.40;;;;;;;5.65;100.00;100564.00;105452;1258;99491;-77
2023/04/07 06:06:44;;;;;;;47.40;29.30;;;;;;;5.67;100.00;100563.39;105381;1257;97947;-78
2023/04/07 06:09:30;;;;;;;48.30;29.10;;;;;;;5.70;100.00;100563.98;105304;1261;98100;-77
2023/04/07 06:12:16;;;;;;;43.10;29.90;;;;;;;5.73;100.00;100568.98;105436;1257;97872;-78
2023/04/07 06:15:01;;;;;;;42.30;27.90;;;;;;;5.76;100.00;100568.00;105321;1261;103008;-78
2023/04/07 06:17:46;;;;;;;51.30;30.10;;;;;;;5.78;100.00;100572.18;105329;1257;99211;-77
2023/04/07 06:20:32;;;;;;;43.80;29.30;;;;;;;5.80;100.00;100571.27;105376;1269;97940;-77
2023/04/07 06:23:17;;;;;;;48.60;30.60;;;;;;;5.83;100.00;100567.10;105393;1257;97888;-78
2023/04/07 06:26:03;;;;;;;45.00;29.70;;;;;;;5.85;100.00;100568.79;105431;1259;99250;-78
2023/04/07 06:28:49;;;;;;;44.00;28.00;;;;;;;5.88;100.00;100567.23;105497;1256;103059;-79
2023/04/07 06:31:35;;;;;;;39.70;27.20;;;;;;;5.91;100.00;100568.33;105368;1257;99240;-77
2023/04/07 06:34:20;;;;;;;44.20;30.10;;;;;;;5.94;100.00;100566.95;105410;1260;98426;-77
2023/04/07 06:37:06;;;;;;;46.00;30.00;;;;;;;5.99;100.00;100562.10;105680;1257;97986;-78
2023/04/07 06:39:52;;;;;;;49.80;30.70;;;;;;;6.02;100.00;100560.65;105604;1254;98645;-78
2023/04/07 06:42:38;;;;;;;42.30;28.30;;;;;;;6.05;100.00;100558.40;105484;1254;101339;-78
2023/04/07 06:45:33;;;;;;;45.90;30.70;;;;;;;6.07;100.00;100561.50;105603;1260;99186;-78
2023/04/07 06:48:19;;;;;;;43.30;28.50;;;;;;;6.11;100.00;100562.23;105540;1253;99035;-79
2023/04/07 06:51:04;;;;;;;46.40;30.20;;;;;;;6.14;100.00;100561.86;105652;1258;98851;-78
2023/04/07 06:53:50;;;;;;;43.70;28.80;;;;;;;6.17;100.00;100560.52;105783;1258;98660;-81
2023/04/07 06:56:35;;;;;;;45.90;29.80;;;;;;;6.20;100.00;100558.64;106479;1255;101920;-80
2023/04/07 06:59:21;;;;;;;46.20;28.90;;;;;;;6.22;100.00;100558.58;106120;1254;99082;-82
2023/04/07 07:02:07;;;;;;;43.20;28.10;;;;;;;6.26;100.00;100559.09;106327;1258;99975;-81
2023/04/07 07:04:53;;;;;;;45.90;28.80;;;;;;;6.28;100.00;100560.04;106660;1255;97979;-77
2023/04/07 07:07:39;;;;;;;44.70;29.30;;;;;;;6.31;100.00;100559.42;106021;1256;99238;-80
2023/04/07 07:10:24;;;;;;;39.40;27.60;;;;;;;6.33;100.00;100556.52;106197;1259;102974;-82
2023/04/07 07:13:10;;;;;;;43.20;28.70;;;;;;;6.35;100.00;100557.16;106634;1260;99091;-80
2023/04/07 07:15:55;;;;;;;40.10;26.90;;;;;;;6.38;100.00;100560.24;106417;1260;99016;-84
2023/04/07 07:18:41;;;;;;;43.10;27.50;;;;;;;6.40;100.00;100561.26;106349;1257;97889;-83
2023/04/07 07:21:26;;;;;;;36.50;26.50;;;;;;;6.43;100.00;100562.35;106584;1253;98374;-81
2023/04/07 07:24:12;;;;;;;42.00;26.60;;;;;;;6.47;100.00;100563.03;106588;1258;101348;-79
2023/04/07 07:26:57;;;;;;;42.30;27.10;;;;;;;6.52;100.00;100561.29;106618;1255;99178;-82
2023/04/07 07:29:43;;;;;;;43.30;28.10;;;;;;;6.57;100.00;100565.48;106617;1255;98231;-78
2023/04/07 07:32:28;;;;;;;43.80;28.40;;;;;;;6.63;100.00;100566.58;105670;1258;97888;-83
2023/04/07 07:35:14;;;;;;;39.90;27.10;;;;;;;6.69;100.00;100568.79;106163;1260;97935;-80
2023/04/07 07:38:00;;;;;;;43.70;29.20;;;;;;;6.76;100.00;100569.14;106009;1255;102553;-81
2023/04/07 07:40:46;;;;;;;39.70;27.90;;;;;;;6.80;100.00;100566.69;105861;1255;99094;-81
2023/04/07 07:43:32;;;;;;;42.90;29.30;;;;;;;6.85;100.00;100564.43;105691;1260;97942;-78
2023/04/07 07:46:18;;;;;;;36.00;25.70;;;;;;;6.88;100.00;100563.17;105806;1255;97975;-77
2023/04/07 07:49:04;;;;;;;37.20;26.10;;;;;;;6.92;100.00;100564.23;105500;1260;97877;-77
2023/04/07 07:51:50;;;;;;;39.70;25.80;;;;;;;6.95;100.00;100563.48;105837;1255;101403;-76
2023/04/07 07:54:35;;;;;;;39.10;27.20;;;;;;;7.00;100.00;100565.09;105272;1257;99197;-77
2023/04/07 07:57:21;;;;;;;38.50;26.60;;;;;;;7.08;100.00;100564.56;106035;1254;98050;-78
2023/04/07 08:00:07;;;;;;;40.50;28.10;;;;;;;7.16;100.00;100569.60;105468;1260;97961;-78
2023/04/07 08:02:59;;;;;;;37.10;25.40;;;;;;;7.27;100.00;100573.70;107304;1256;97984;-78
2023/04/07 08:05:45;;;;;;;39.00;27.90;;;;;;;7.38;100.00;100577.06;105291;1269;101380;-76
2023/04/07 08:08:30;;;;;;;39.10;26.40;;;;;;;7.49;100.00;100574.95;106190;1260;100234;-81
2023/04/07 08:11:16;;;;;;;41.00;27.30;;;;;;;7.61;100.00;100572.52;106416;1256;99026;-79
2023/04/07 08:14:01;;;;;;;39.80;24.70;;;;;;;7.71;100.00;100568.27;105654;1258;99473;-76
2023/04/07 08:16:46;;;;;;;34.70;24.50;;;;;;;7.76;100.00;100571.56;105436;1254;99225;-78
2023/04/07 08:19:32;;;;;;;42.60;27.00;;;;;;;7.82;100.00;100570.92;105523;1254;101331;-78
2023/04/07 08:22:19;;;;;;;41.00;26.40;;;;;;;7.89;100.00;100573.02;105881;1254;99170;-78
2023/04/07 08:25:05;;;;;;;38.10;25.90;;;;;;;7.98;100.00;100573.95;105443;1254;98782;-76
2023/04/07 08:27:50;;;;;;;36.90;25.40;;;;;;;8.05;100.00;100577.10;105606;1255;98040;-77
2023/04/07 08:30:36;;;;;;;34.80;23.30;;;;;;;8.09;100.00;100574.66;105325;1253;98468;-76
2023/04/07 08:33:23;;;;;;;30.90;23.40;;;;;;;8.12;100.00;100571.61;105377;1256;102568;-77
2023/04/07 08:36:08;;;;;;;32.40;23.90;;;;;;;8.15;100.00;100570.05;105453;1256;99976;-77
2023/04/07 08:38:54;;;;;;;32.70;23.60;;;;;;;8.16;100.00;100576.88;105342;1253;98006;-76
2023/04/07 08:41:41;;;;;;;32.50;24.30;;;;;;;8.15;100.00;100580.21;105499;1254;97949;-77
2023/04/07 08:44:27;;;;;;;38.20;22.90;;;;;;;8.14;100.00;100574.81;105476;1254;98567;-76
2023/04/07 08:47:16;;;;;;;32.70;22.50;;;;;;;8.14;100.00;100568.45;105438;1256;101823;-77
2023/04/07 08:50:07;;;;;;;31.60;22.80;;;;;;;8.15;100.00;100572.08;105373;1254;99269;-76
2023/04/07 08:52:55;;;;;;;30.50;22.20;;;;;;;8.14;100.00;100575.11;105289;1261;97954;-76
2023/04/07 08:55:41;;;;;;;30.20;21.20;;;;;;;8.14;100.00;100571.11;106556;1257;97950;-84
2023/04/07 08:58:29;;;;;;;29.40;20.90;;;;;;;8.13;100.00;100574.02;106177;1256;98081;-81
2023/04/07 09:01:16;;;;;;;31.00;22.20;;;;;;;8.15;100.00;100572.73;106035;1255;102384;-83
2023/04/07 09:04:03;;;;;;;29.30;21.30;;;;;;;8.18;100.00;100570.19;106597;1253;99142;-82
2023/04/07 09:06:49;;;;;;;28.40;21.10;;;;;;;8.22;100.00;100569.73;105820;1260;98535;-77
2023/04/07 09:09:35;;;;;;;38.60;22.80;;;;;;;8.26;100.00;100565.63;105546;1258;97844;-76
2023/04/07 09:12:20;;;;;;;33.80;21.60;;;;;;;8.30;100.00;100570.69;105679;1261;97964;-75
2023/04/07 09:15:07;;;;;;;29.30;21.40;;;;;;;8.33;100.00;100572.19;105517;1254;102584;-75
2023/04/07 09:17:55;;;;;;;33.60;21.60;;;;;;;8.33;100.00;100570.91;105383;1255;100104;-74
2023/04/07 09:21:13;;;;;;;31.10;21.60;;;;;;;8.33;100.00;100568.21;105442;1254;98229;-75
2023/04/07 09:23:58;;;;;;;26.50;19.40;;;;;;;8.33;100.00;100567.16;105138;1258;98009;-75
2023/04/07 09:26:44;;;;;;;27.90;19.40;;;;;;;8.31;100.00;100566.01;105906;1255;98464;-84
2023/04/07 09:29:30;;;;;;;26.60;20.40;;;;;;;8.29;100.00;100564.23;106052;1256;103061;-84
2023/04/07 09:32:36;;;;;;;24.90;19.50;;;;;;;8.31;100.00;100560.81;106376;1255;99208;-82
2023/04/07 09:35:23;;;;;;;28.00;18.80;;;;;;;8.33;100.00;100558.77;106108;1255;97941;-77
2023/04/07 09:38:09;;;;;;;26.30;19.10;;;;;;;8.37;100.00;100557.29;105301;1255;97889;-77
2023/04/07 09:41:04;;;;;;;29.50;21.10;;;;;;;8.38;100.00;100557.80;105436;1258;98466;-76
2023/04/07 09:43:55;;;;;;;26.70;18.80;;;;;;;8.41;100.00;100555.00;105428;1254;101910;-76
2023/04/07 09:46:52;;;;;;;26.60;19.50;;;;;;;8.44;100.00;100556.74;105472;1258;110166;-77
2023/04/07 09:49:51;;;;;;;28.60;21.10;;;;;;;8.51;100.00;100561.19;105523;1258;98083;-78
2023/04/07 09:52:51;;;;;;;25.90;20.00;;;;;;;8.58;100.00;100567.17;105641;1258;97940;-76
2023/04/07 09:55:39;;;;;;;28.10;20.70;;;;;;;8.63;100.00;100566.00;105425;1258;97939;-76
2023/04/07 09:58:24;;;;;;;35.00;19.70;;;;;;;8.68;100.00;100568.10;105425;1254;101301;-75
2023/04/07 10:01:11;;;;;;;25.50;18.80;;;;;;;8.72;100.00;100569.45;105498;1265;99060;-75
2023/04/07 10:03:57;;;;;;;28.90;19.40;;;;;;;8.76;100.00;100568.23;105523;1254;98910;-75
2023/04/07 10:06:43;;;;;;;26.90;20.20;;;;;;;8.82;100.00;100563.95;105531;1256;98491;-83
2023/04/07 10:09:29;;;;;;;26.00;20.70;;;;;;;8.90;100.00;100565.23;105717;1254;97894;-77
2023/04/07 10:12:18;;;;;;;29.70;20.70;;;;;;;8.95;100.00;100568.11;105738;1254;101301;-76
2023/04/07 10:15:04;;;;;;;27.00;20.40;;;;;;;9.01;100.00;100566.90;105508;1254;99073;-76
2023/04/07 10:17:52;;;;;;;30.30;21.90;;;;;;;9.07;100.00;100568.90;105478;1258;98046;-76
2023/04/07 10:20:42;;;;;;;26.60;20.30;;;;;;;9.11;100.00;100568.04;105751;1254;97946;-76
2023/04/07 10:23:56;;;;;;;34.00;22.00;;;;;;;9.15;100.00;100568.10;105524;1254;97835;-86
2023/04/07 10:26:43;;;;;;;27.20;21.10;;;;;;;9.19;100.00;100567.48;105748;1258;102081;-76
2023/04/07 10:29:36;;;;;;;33.50;21.50;;;;;;;9.23;100.00;100564.47;106052;1258;100969;-76
2023/04/07 10:32:22;;;;;;;28.80;20.00;;;;;;;9.29;100.00;100563.46;105682;1257;97918;-76
2023/04/07 10:35:07;;;;;;;30.60;21.10;;;;;;;9.34;100.00;100567.86;105610;1257;98583;-76
2023/04/07 10:38:10;;;;;;;28.30;19.00;;;;;;;9.39;100.00;100567.45;105399;1255;98387;-76
2023/04/07 10:40:56;;;;;;;31.30;21.90;;;;;;;9.43;100.00;100566.95;105460;1256;101893;-76
2023/04/07 10:43:43;;;;;;;27.70;20.30;;;;;;;9.48;100.00;100564.07;105300;1255;99272;-76
2023/04/07 10:47:01;;;;;;;26.30;19.60;;;;;;;9.54;100.00;100561.25;105322;1256;99438;-77
2023/04/07 10:50:14;;;;;;;29.20;22.00;;;;;;;9.60;100.00;100560.15;105903;1254;97865;-77
2023/04/07 10:53:08;;;;;;;29.40;20.20;;;;;;;9.69;100.00;100563.67;105824;1258;98122;-78
2023/04/07 10:55:54;;;;;;;25.70;20.00;;;;;;;9.79;100.00;100566.42;105826;1258;101327;-77
2023/04/07 10:58:40;;;;;;;25.00;19.20;;;;;;;9.88;100.00;100567.77;105541;1260;99440;-77
2023/04/07 11:01:26;;;;;;;31.00;20.40;;;;;;;9.94;100.00;100569.70;105542;1258;99008;-82
2023/04/07 11:04:12;;;;;;;26.80;20.60;;;;;;;10.02;100.00;100574.61;106392;1256;98054;-78
2023/04/07 11:06:58;;;;;;;26.50;18.80;;;;;;;10.10;100.00;100576.92;105695;1257;98461;-75
2023/04/07 11:09:44;;;;;;;23.60;18.00;;;;;;;10.14;100.00;100580.15;105786;1254;102601;-81
2023/04/07 11:12:30;;;;;;;21.80;18.60;;;;;;;10.17;100.00;100581.81;106071;1253;99873;-78
2023/04/07 11:15:16;;;;;;;25.30;17.80;;;;;;;10.19;100.00;100581.34;105531;1260;98730;-77
2023/04/07 11:18:09;;;;;;;24.70;18.40;;;;;;;10.22;100.00;100585.95;105364;1260;97926;-77
2023/04/07 11:20:57;;;;;;;25.90;18.40;;;;;;;10.24;100.00;100587.88;105654;1253;99243;-87
2023/04/07 11:23:45;;;;;;;23.30;17.60;;;;;;;10.26;100.00;100584.44;105337;1254;101355;-77
2023/04/07 11:26:37;;;;;;;21.40;16.60;;;;;;;10.29;100.00;100581.77;106915;1254;101379;-84
2023/04/07 11:29:28;;;;;;;22.70;16.80;;;;;;;10.33;100.00;100580.73;106113;1256;98449;-78
2023/04/07 11:32:14;;;;;;;23.60;17.30;;;;;;;10.38;100.00;100582.62;105697;1259;96522;-77
2023/04/07 11:34:59;;;;;;;24.60;17.60;;;;;;;10.44;100.00;100579.66;105517;1258;98736;-78
2023/04/07 11:37:44;;;;;;;24.30;16.10;;;;;;;10.50;100.00;100578.79;105618;1253;102076;-77
2023/04/07 11:40:35;;;;;;;26.70;17.90;;;;;;;10.57;100.00;100576.61;105906;1258;99800;-78
2023/04/07 11:43:24;;;;;;;24.30;18.20;;;;;;;10.65;100.00;100574.07;105559;1258;98675;-78
2023/04/07 11:46:14;;;;;;;21.70;16.90;;;;;;;10.72;100.00;100574.04;105447;1258;98469;-76
2023/04/07 11:49:11;;;;;;;24.40;16.90;;;;;;;10.80;100.00;100572.39;105685;1254;97937;-81
2023/04/07 11:51:57;;;;;;;22.90;16.60;;;;;;;10.85;100.00;100574.94;105850;1257;102222;-77
2023/04/07 11:54:45;;;;;;;22.50;15.90;;;;;;;10.92;100.00;100575.72;105413;1255;100293;-77
2023/04/07 11:57:31;;;;;;;23.30;15.90;;;;;;;11.00;100.00;100572.88;105627;1272;98076;-79
2023/04/07 12:00:18;;;;;;;21.30;16.30;;;;;;;11.11;100.00;100573.89;105598;1258;97900;-79
2023/04/07 12:03:13;;;;;;;20.50;15.60;;;;;;;11.19;100.00;100572.08;105523;1258;99728;-78
2023/04/07 12:06:00;;;;;;;20.90;16.10;;;;;;;11.30;100.00;100573.26;105330;1255;101428;-78
2023/04/07 12:08:46;;;;;;;18.30;15.30;;;;;;;11.38;100.00;100572.52;105608;1256;99077;-79
2023/04/07 12:11:32;;;;;;;25.10;15.60;;;;;;;11.45;100.00;100571.33;105590;1255;98046;-79
2023/04/07 12:14:18;;;;;;;20.10;14.90;;;;;;;11.52;100.00;100570.19;105567;1255;97965;-79
2023/04/07 12:17:04;;;;;;;20.50;14.70;;;;;;;11.56;100.00;100571.55;105495;1256;98061;-79
2023/04/07 12:19:49;;;;;;;21.20;14.50;;;;;;;11.54;100.00;100573.23;105387;1258;101384;-79
2023/04/07 12:22:35;;;;;;;20.00;14.90;;;;;;;11.50;100.00;100574.52;105536;1260;99158;-79
2023/04/07 12:25:20;;;;;;;22.80;15.10;;;;;;;11.45;100.00;100574.31;105379;1254;98290;-78
2023/04/07 12:28:06;;;;;;;20.40;14.60;;;;;;;11.40;100.00;100575.83;105471;1258;98534;-79
2023/04/07 12:30:51;;;;;;;18.60;13.90;;;;;;;11.36;100.00;100573.39;105564;1255;98482;-77
2023/04/07 12:33:37;;;;;;;18.40;14.30;;;;;;;11.33;100.00;100578.98;105653;1255;102266;-77